Terminal Aerodrome Forecast
Issued by NWS

Home | Current Version | Previous Version | Text Only | Print | Product List | Glossary Off
Versions: 1 2 3 4 5 6 7 8 9 10 11 12 13 14 15 16 17 18 19 20

000
FTUS42 KMHX 200500 RRA
TAFISO
TAF
KISO 200541Z 2006/2106 00000KT P6SM VCSH SCT020 BKN100
     FM200800 00000KT 4SM BR BKN025 OVC040
     FM201000 00000KT 2SM BR BKN005 OVC020
     FM201300 VRB02KT 5SM BR BKN020
     FM201500 36003KT P6SM VCSH SCT035 BKN120
      AMD LTD TO CLD VIS AND WIND=

USA.gov is the U.S. government's official web portal to all federal, state and local government web resources and services.